Time;durP1;ratioP1;P1;durP2;ratioP2;P2;SDS_P1;SDS_P2;PMS_P1;PMS_P2;Temp;Humidity;BMP_temperature;BMP_pressure;BME280_temperature;BME280_humidity;BME280_pressure;Samples;Min_cycle;Max_cycle;Signal;HPM_P1;HPM_P2
2023/10/08 00:00:49;;;;;;;;;;;21.90;57.20;;;;;;10179908;28;94556;-68
2023/10/08 00:05:51;;;;;;;;;;;21.80;57.10;;;;;;10164054;28;93568;-68
2023/10/08 00:10:53;;;;;;;;;;;21.80;57.10;;;;;;10159797;28;97041;-68
2023/10/08 00:15:58;;;;;;;;;;;21.80;57.00;;;;;;10185727;28;94421;-68
2023/10/08 00:21:26;;;;;;;;;;;21.80;57.00;;;;;;10191018;28;94502;-68
2023/10/08 00:26:29;;;;;;;;;;;21.80;56.90;;;;;;10178065;28;94614;-68
2023/10/08 00:31:40;;;;;;;;;;;21.80;56.90;;;;;;10191352;28;94586;-68
2023/10/08 00:36:43;;;;;;;;;;;21.80;56.80;;;;;;10177109;28;94524;-68
2023/10/08 00:41:45;;;;;;;;;;;21.80;56.70;;;;;;10176872;28;93413;-68
2023/10/08 00:46:47;;;;;;;;;;;21.70;56.60;;;;;;10185795;28;93765;-68
2023/10/08 00:52:04;;;;;;;;;;;21.70;56.60;;;;;;10179450;28;94172;-68
2023/10/08 00:57:07;;;;;;;;;;;21.70;56.60;;;;;;10166130;28;93437;-68
2023/10/08 01:07:18;;;;;;;;;;;21.70;56.40;;;;;;10088892;28;96505;-69
2023/10/08 01:17:32;;;;;;;;;;;21.70;56.40;;;;;;10103504;28;93805;-69
2023/10/08 01:22:34;;;;;;;;;;;21.70;56.30;;;;;;10115910;28;94207;-68
2023/10/08 01:27:37;;;;;;;;;;;21.70;56.30;;;;;;10125729;28;93453;-69
2023/10/08 01:32:40;;;;;;;;;;;21.60;56.20;;;;;;10124014;28;92718;-69
2023/10/08 01:37:43;;;;;;;;;;;21.60;56.20;;;;;;10115154;28;94239;-69
2023/10/08 01:42:46;;;;;;;;;;;21.60;56.20;;;;;;10115338;28;93439;-69
2023/10/08 01:47:51;;;;;;;;;;;21.60;57.20;;;;;;10101233;28;93396;-69
2023/10/08 01:52:53;;;;;;;;;;;21.60;56.20;;;;;;10118078;28;96892;-69
2023/10/08 01:57:56;;;;;;;;;;;21.60;56.20;;;;;;10098376;28;93600;-68
2023/10/08 02:02:59;;;;;;;;;;;21.60;56.10;;;;;;10108237;28;93817;-68
2023/10/08 02:08:03;;;;;;;;;;;21.60;56.10;;;;;;10116699;28;94980;-68
2023/10/08 02:13:05;;;;;;;;;;;21.60;56.10;;;;;;10121007;28;93512;-68
2023/10/08 02:18:08;;;;;;;;;;;21.60;56.00;;;;;;10111571;28;94653;-68
2023/10/08 02:23:13;;;;;;;;;;;21.60;55.90;;;;;;10119296;28;94496;-68
2023/10/08 02:28:15;;;;;;;;;;;21.60;55.80;;;;;;10124877;28;93432;-68
2023/10/08 02:33:17;;;;;;;;;;;21.60;55.70;;;;;;10101760;28;93467;-68
2023/10/08 02:38:21;;;;;;;;;;;21.60;55.60;;;;;;10117475;28;93049;-68
2023/10/08 02:43:23;;;;;;;;;;;21.60;55.60;;;;;;10109220;28;96796;-68
2023/10/08 02:48:25;;;;;;;;;;;21.60;55.60;;;;;;10095327;28;94170;-68
2023/10/08 02:53:29;;;;;;;;;;;21.60;55.50;;;;;;10104967;28;94632;-69
2023/10/08 02:58:33;;;;;;;;;;;21.60;55.40;;;;;;10112173;28;94547;-68
2023/10/08 03:03:36;;;;;;;;;;;21.60;55.50;;;;;;10117697;28;93391;-68
2023/10/08 03:08:41;;;;;;;;;;;21.60;55.30;;;;;;10106681;28;93240;-68
2023/10/08 03:13:53;;;;;;;;;;;21.70;55.20;;;;;;10117750;28;94169;-68
2023/10/08 03:18:57;;;;;;;;;;;21.60;55.10;;;;;;10113480;28;94095;-68
2023/10/08 03:23:59;;;;;;;;;;;21.70;55.20;;;;;;10101804;28;92831;-68
2023/10/08 03:29:05;;;;;;;;;;;21.70;55.10;;;;;;10111627;28;94720;-68
2023/10/08 03:34:07;;;;;;;;;;;21.70;55.00;;;;;;10112681;28;96988;-68
2023/10/08 03:39:13;;;;;;;;;;;21.60;55.00;;;;;;10112707;28;93078;-68
2023/10/08 03:44:16;;;;;;;;;;;21.60;54.80;;;;;;10097325;28;94385;-68
2023/10/08 03:54:29;;;;;;;;;;;21.60;54.70;;;;;;10120750;28;94193;-68
2023/10/08 03:59:34;;;;;;;;;;;21.60;54.70;;;;;;10090411;28;94398;-68
2023/10/08 04:04:51;;;;;;;;;;;21.60;54.70;;;;;;10085334;28;93545;-68
2023/10/08 04:10:29;;;;;;;;;;;21.60;54.60;;;;;;10107613;28;94405;-68
2023/10/08 04:15:24;;;;;;;;;;;21.60;54.50;;;;;;10126331;28;94380;-68
2023/10/08 04:25:41;;;;;;;;;;;21.60;54.50;;;;;;10124065;28;95926;-68
2023/10/08 04:30:45;;;;;;;;;;;21.50;54.40;;;;;;10126433;28;93457;-68
2023/10/08 04:36:01;;;;;;;;;;;21.50;54.40;;;;;;10084498;28;93442;-68
2023/10/08 04:41:08;;;;;;;;;;;21.50;54.40;;;;;;10125620;28;93563;-68
2023/10/08 04:46:19;;;;;;;;;;;21.50;54.30;;;;;;10110244;28;93407;-68
2023/10/08 04:51:22;;;;;;;;;;;21.50;54.30;;;;;;10104430;28;93534;-68
2023/10/08 04:56:24;;;;;;;;;;;21.50;54.30;;;;;;10119918;28;93879;-68
2023/10/08 05:01:40;;;;;;;;;;;21.50;54.30;;;;;;10126302;28;93875;-67
2023/10/08 05:17:09;;;;;;;;;;;21.50;54.40;;;;;;10116931;28;95380;-67
2023/10/08 05:22:29;;;;;;;;;;;21.40;54.40;;;;;;10117385;28;94453;-68
2023/10/08 05:27:56;;;;;;;;;;;21.40;54.50;;;;;;10114876;28;93555;-68
2023/10/08 05:38:23;;;;;;;;;;;21.40;54.50;;;;;;10123267;28;93362;-67
2023/10/08 05:54:24;;;;;;;;;;;21.40;54.70;;;;;;10112412;28;92388;-68
2023/10/08 05:59:38;;;;;;;;;;;21.40;54.70;;;;;;10106847;28;94432;-68
2023/10/08 06:04:53;;;;;;;;;;;21.40;54.80;;;;;;10113145;28;94729;-68
2023/10/08 06:10:13;;;;;;;;;;;21.40;54.90;;;;;;10106989;28;95815;-68
2023/10/08 06:15:27;;;;;;;;;;;21.40;55.00;;;;;;10114427;28;93595;-68
2023/10/08 06:20:29;;;;;;;;;;;21.40;55.00;;;;;;10101891;28;94839;-68
2023/10/08 06:25:31;;;;;;;;;;;21.50;55.20;;;;;;10095482;28;94504;-68
2023/10/08 06:30:34;;;;;;;;;;;21.50;55.20;;;;;;10105011;28;93804;-67
2023/10/08 06:35:36;;;;;;;;;;;21.40;56.50;;;;;;10109895;28;94705;-67
2023/10/08 06:45:44;;;;;;;;;;;21.40;58.00;;;;;;10114089;28;93909;-68
2023/10/08 06:50:47;;;;;;;;;;;21.50;59.40;;;;;;10114399;28;93073;-67
2023/10/08 06:55:56;;;;;;;;;;;21.50;59.50;;;;;;10086986;28;92969;-68
2023/10/08 07:00:58;;;;;;;;;;;21.50;59.10;;;;;;10119531;28;96676;-68
2023/10/08 07:06:16;;;;;;;;;;;21.50;58.90;;;;;;10115738;28;94436;-67
2023/10/08 07:11:18;;;;;;;;;;;21.50;58.90;;;;;;10117735;28;93992;-68
2023/10/08 07:16:20;;;;;;;;;;;21.50;59.00;;;;;;10109546;28;94579;-68
2023/10/08 07:21:28;;;;;;;;;;;21.50;59.10;;;;;;10087676;28;93596;-68
2023/10/08 07:26:36;;;;;;;;;;;21.50;59.30;;;;;;10108776;28;94626;-68
2023/10/08 07:31:41;;;;;;;;;;;21.50;59.30;;;;;;10109247;28;94661;-68
2023/10/08 07:36:47;;;;;;;;;;;21.50;59.40;;;;;;10114878;28;92608;-68
2023/10/08 07:41:49;;;;;;;;;;;21.50;59.50;;;;;;10101806;28;93585;-68
2023/10/08 07:46:54;;;;;;;;;;;21.50;59.50;;;;;;10118508;28;94426;-68
2023/10/08 07:51:58;;;;;;;;;;;21.50;59.60;;;;;;10114289;28;95663;-68
2023/10/08 07:57:11;;;;;;;;;;;21.50;59.80;;;;;;10116929;28;93600;-68
2023/10/08 08:02:14;;;;;;;;;;;21.50;59.80;;;;;;10102108;28;94502;-68
2023/10/08 08:07:16;;;;;;;;;;;21.40;59.80;;;;;;10108352;28;95170;-68
2023/10/08 08:12:21;;;;;;;;;;;21.40;59.90;;;;;;10122485;28;93622;-68
2023/10/08 08:17:24;;;;;;;;;;;21.40;59.80;;;;;;10124849;28;95587;-68
2023/10/08 08:22:31;;;;;;;;;;;21.40;59.80;;;;;;10112373;28;95278;-68
2023/10/08 08:27:33;;;;;;;;;;;21.40;59.80;;;;;;10118771;28;92791;-68
2023/10/08 08:32:43;;;;;;;;;;;21.40;59.90;;;;;;10124449;28;93151;-68
2023/10/08 08:37:46;;;;;;;;;;;21.30;60.00;;;;;;10122885;28;93951;-68
2023/10/08 08:42:49;;;;;;;;;;;21.30;60.00;;;;;;10113538;28;95481;-68
2023/10/08 08:47:52;;;;;;;;;;;21.30;60.00;;;;;;10121408;28;95231;-67
2023/10/08 08:52:54;;;;;;;;;;;21.30;60.10;;;;;;10117680;28;93430;-67
2023/10/08 08:57:56;;;;;;;;;;;21.30;60.10;;;;;;10119512;28;93537;-68
2023/10/08 09:02:58;;;;;;;;;;;21.30;60.20;;;;;;10120931;28;93804;-68
2023/10/08 09:08:04;;;;;;;;;;;21.30;60.20;;;;;;10106055;28;93841;-67
2023/10/08 09:13:11;;;;;;;;;;;21.30;60.20;;;;;;10116772;28;94250;-67
2023/10/08 09:18:14;;;;;;;;;;;21.30;60.20;;;;;;10111393;28;93450;-67
2023/10/08 09:23:21;;;;;;;;;;;21.30;60.20;;;;;;10123728;28;93925;-68
2023/10/08 09:28:25;;;;;;;;;;;21.40;60.20;;;;;;10123832;28;93813;-67
2023/10/08 09:33:28;;;;;;;;;;;21.30;60.20;;;;;;10110886;28;96726;-68
2023/10/08 09:38:31;;;;;;;;;;;21.30;60.20;;;;;;10123533;28;93438;-68
2023/10/08 09:43:34;;;;;;;;;;;21.40;60.30;;;;;;10112451;28;93699;-67
2023/10/08 09:48:38;;;;;;;;;;;21.30;60.30;;;;;;10119870;28;93910;-67
2023/10/08 09:53:47;;;;;;;;;;;21.30;60.30;;;;;;10125025;28;93915;-67
2023/10/08 09:58:49;;;;;;;;;;;21.30;60.30;;;;;;10096751;28;94558;-68
2023/10/08 10:03:52;;;;;;;;;;;21.30;60.30;;;;;;10104863;28;94732;-68
2023/10/08 10:08:57;;;;;;;;;;;21.40;60.60;;;;;;10109686;28;93264;-68
2023/10/08 10:14:00;;;;;;;;;;;21.40;60.40;;;;;;10115316;28;93707;-69
2023/10/08 10:19:02;;;;;;;;;;;21.50;60.50;;;;;;10123746;28;93696;-68
2023/10/08 10:24:05;;;;;;;;;;;21.50;60.50;;;;;;10105908;28;97035;-70
2023/10/08 10:29:10;;;;;;;;;;;21.50;60.60;;;;;;10119938;28;93848;-68
2023/10/08 10:34:15;;;;;;;;;;;21.60;61.20;;;;;;10101762;28;94174;-63
2023/10/08 10:39:28;;;;;;;;;;;21.60;62.00;;;;;;10113885;28;94639;-68
2023/10/08 10:44:31;;;;;;;;;;;21.70;62.50;;;;;;10103411;28;95596;-68
2023/10/08 10:49:36;;;;;;;;;;;21.80;63.30;;;;;;10120649;28;94544;-67
2023/10/08 10:54:38;;;;;;;;;;;21.80;64.90;;;;;;10106843;28;94861;-67
2023/10/08 10:59:44;;;;;;;;;;;21.90;63.20;;;;;;10123791;28;93361;-67
2023/10/08 11:04:49;;;;;;;;;;;22.00;63.20;;;;;;10069895;28;94905;-69
2023/10/08 11:09:55;;;;;;;;;;;22.00;63.10;;;;;;10107833;28;114789;-70
2023/10/08 11:14:57;;;;;;;;;;;22.00;63.10;;;;;;10100733;28;96702;-68
2023/10/08 11:19:59;;;;;;;;;;;22.00;63.30;;;;;;10102658;28;94300;-68
2023/10/08 11:25:05;;;;;;;;;;;22.00;63.60;;;;;;10107685;28;93539;-67
2023/10/08 11:30:10;;;;;;;;;;;22.10;64.10;;;;;;10108107;28;94857;-73
2023/10/08 11:35:17;;;;;;;;;;;22.10;64.20;;;;;;10110565;28;94200;-73
2023/10/08 11:40:28;;;;;;;;;;;22.00;63.10;;;;;;10120516;28;94948;-73
2023/10/08 11:45:38;;;;;;;;;;;22.00;60.30;;;;;;10100814;28;93023;-73
2023/10/08 11:50:40;;;;;;;;;;;21.90;58.50;;;;;;10100331;28;93913;-72
2023/10/08 11:55:44;;;;;;;;;;;21.90;57.70;;;;;;10109680;28;93781;-72
2023/10/08 12:00:52;;;;;;;;;;;21.80;57.90;;;;;;10104503;28;93401;-72
2023/10/08 12:05:59;;;;;;;;;;;21.80;58.10;;;;;;10096468;28;97017;-73
2023/10/08 12:11:01;;;;;;;;;;;21.80;58.20;;;;;;10093244;28;94716;-73
2023/10/08 12:16:06;;;;;;;;;;;21.90;58.80;;;;;;10105423;28;94545;-73
2023/10/08 12:21:14;;;;;;;;;;;21.90;59.00;;;;;;10114807;28;93258;-73
2023/10/08 12:26:18;;;;;;;;;;;21.90;59.40;;;;;;10111760;28;94610;-73
2023/10/08 12:31:22;;;;;;;;;;;21.90;59.40;;;;;;10123012;28;93465;-73
2023/10/08 12:36:26;;;;;;;;;;;21.90;59.40;;;;;;10118749;28;93439;-73
2023/10/08 12:41:28;;;;;;;;;;;21.90;59.60;;;;;;10126990;28;92769;-72
2023/10/08 12:46:31;;;;;;;;;;;21.90;59.60;;;;;;10124298;28;95080;-69
2023/10/08 12:51:33;;;;;;;;;;;21.90;59.60;;;;;;10132905;28;93396;-70
2023/10/08 12:56:35;;;;;;;;;;;21.90;60.70;;;;;;10119906;28;96798;-73
2023/10/08 13:01:41;;;;;;;;;;;21.80;59.90;;;;;;10121682;28;93498;-71
2023/10/08 13:06:45;;;;;;;;;;;21.80;59.50;;;;;;10097768;28;93812;-71
2023/10/08 13:11:47;;;;;;;;;;;21.80;59.90;;;;;;10113268;28;94804;-72
2023/10/08 13:16:53;;;;;;;;;;;21.80;60.10;;;;;;10120078;28;95238;-72
2023/10/08 13:21:55;;;;;;;;;;;21.80;60.30;;;;;;10095980;28;94441;-72
2023/10/08 13:26:58;;;;;;;;;;;21.80;60.60;;;;;;10117042;28;94268;-72
2023/10/08 13:32:00;;;;;;;;;;;21.80;60.80;;;;;;10117476;28;92735;-72
2023/10/08 13:37:02;;;;;;;;;;;21.80;61.00;;;;;;10099807;28;93932;-72
2023/10/08 13:42:04;;;;;;;;;;;21.80;61.10;;;;;;10112210;28;94446;-72
2023/10/08 13:47:06;;;;;;;;;;;21.80;61.30;;;;;;10113626;28;96452;-72
2023/10/08 13:52:08;;;;;;;;;;;21.70;61.40;;;;;;10113411;28;93559;-73
2023/10/08 13:57:14;;;;;;;;;;;21.80;61.60;;;;;;10118863;28;94083;-73
2023/10/08 14:02:19;;;;;;;;;;;21.70;61.70;;;;;;10107509;28;94021;-69
2023/10/08 14:07:21;;;;;;;;;;;21.70;61.50;;;;;;10109237;28;94779;-70
2023/10/08 14:12:23;;;;;;;;;;;21.70;61.70;;;;;;10110822;28;93453;-68
2023/10/08 14:17:42;;;;;;;;;;;21.70;61.80;;;;;;10103832;28;93705;-68
2023/10/08 14:22:44;;;;;;;;;;;21.70;62.00;;;;;;10105158;28;93951;-67
2023/10/08 14:27:51;;;;;;;;;;;21.70;62.00;;;;;;10115375;28;95229;-66
2023/10/08 14:32:57;;;;;;;;;;;21.70;62.10;;;;;;10099364;28;94287;-69
2023/10/08 14:43:23;;;;;;;;;;;21.70;62.20;;;;;;10098245;28;93450;-69
2023/10/08 14:48:27;;;;;;;;;;;21.70;62.30;;;;;;10114782;28;94644;-70
2023/10/08 14:53:31;;;;;;;;;;;21.60;62.40;;;;;;10098453;28;93491;-69
2023/10/08 14:58:33;;;;;;;;;;;21.60;62.40;;;;;;10097660;28;93869;-70
2023/10/08 15:03:36;;;;;;;;;;;21.60;62.50;;;;;;10113201;28;93372;-70
2023/10/08 15:08:38;;;;;;;;;;;21.60;62.60;;;;;;10114634;28;93709;-69
2023/10/08 15:13:40;;;;;;;;;;;21.60;62.60;;;;;;10120099;28;92258;-70
2023/10/08 15:18:42;;;;;;;;;;;21.60;62.70;;;;;;10112505;28;93642;-70
2023/10/08 15:23:45;;;;;;;;;;;21.70;62.80;;;;;;10098364;28;94337;-70
2023/10/08 15:28:47;;;;;;;;;;;21.60;62.70;;;;;;10088156;28;96840;-69
2023/10/08 15:33:49;;;;;;;;;;;21.70;62.80;;;;;;10108309;28;93838;-69
2023/10/08 15:38:51;;;;;;;;;;;21.60;62.90;;;;;;10112644;28;93960;-67
2023/10/08 15:43:58;;;;;;;;;;;21.70;63.30;;;;;;10109891;28;94340;-68
2023/10/08 15:49:02;;;;;;;;;;;21.80;64.10;;;;;;10113470;28;93630;-69
2023/10/08 15:54:05;;;;;;;;;;;21.90;64.60;;;;;;10118618;28;94444;-71
2023/10/08 15:59:07;;;;;;;;;;;22.20;66.30;;;;;;10109193;28;93660;-70
2023/10/08 16:04:09;;;;;;;;;;;22.40;66.50;;;;;;10109600;28;93643;-72
2023/10/08 16:09:12;;;;;;;;;;;22.60;66.40;;;;;;10121712;28;94418;-72
2023/10/08 16:14:15;;;;;;;;;;;22.60;67.60;;;;;;10124573;28;93661;-70
2023/10/08 16:19:18;;;;;;;;;;;22.60;66.80;;;;;;10090817;28;96542;-70
2023/10/08 16:24:21;;;;;;;;;;;22.60;67.20;;;;;;10120879;28;93977;-69
2023/10/08 16:29:23;;;;;;;;;;;22.60;66.60;;;;;;10117808;28;94365;-67
2023/10/08 16:34:26;;;;;;;;;;;22.60;66.00;;;;;;10101352;28;93762;-67
2023/10/08 16:39:30;;;;;;;;;;;22.60;65.80;;;;;;10111753;28;94532;-68
2023/10/08 16:44:33;;;;;;;;;;;22.50;65.80;;;;;;10107170;28;93854;-67
2023/10/08 16:49:35;;;;;;;;;;;22.50;65.70;;;;;;10105327;28;93805;-67
2023/10/08 16:54:37;;;;;;;;;;;22.50;65.80;;;;;;10121680;28;94038;-68
2023/10/08 16:59:39;;;;;;;;;;;22.40;65.80;;;;;;10121103;28;94440;-68
2023/10/08 17:04:41;;;;;;;;;;;22.40;65.90;;;;;;10123436;28;94216;-68
2023/10/08 17:09:43;;;;;;;;;;;22.40;66.00;;;;;;10115809;28;98533;-68
2023/10/08 17:14:44;;;;;;;;;;;22.40;66.00;;;;;;10110744;28;94831;-67
2023/10/08 17:19:49;;;;;;;;;;;22.40;65.90;;;;;;10123322;28;94457;-68
2023/10/08 17:24:51;;;;;;;;;;;22.40;66.00;;;;;;10105035;28;93940;-68
2023/10/08 17:29:53;;;;;;;;;;;22.30;65.90;;;;;;10119689;28;94378;-68
2023/10/08 17:34:54;;;;;;;;;;;22.30;66.00;;;;;;10114325;28;94132;-68
2023/10/08 17:39:57;;;;;;;;;;;22.30;66.10;;;;;;10120077;28;94781;-68
2023/10/08 17:45:00;;;;;;;;;;;22.30;66.20;;;;;;10123610;28;92669;-67
2023/10/08 17:50:02;;;;;;;;;;;22.30;66.30;;;;;;10114527;28;94469;-68
2023/10/08 17:55:06;;;;;;;;;;;22.30;66.00;;;;;;10115918;28;94211;-68
2023/10/08 18:00:10;;;;;;;;;;;22.20;66.00;;;;;;10117906;28;96944;-68
2023/10/08 18:05:15;;;;;;;;;;;22.30;66.20;;;;;;10113052;28;93466;-69
2023/10/08 18:10:20;;;;;;;;;;;22.20;66.10;;;;;;10116435;28;94097;-69
2023/10/08 18:15:28;;;;;;;;;;;22.20;66.00;;;;;;10116315;28;93223;-69
2023/10/08 18:20:34;;;;;;;;;;;22.20;66.00;;;;;;10113357;28;96905;-68
2023/10/08 18:25:36;;;;;;;;;;;22.20;66.00;;;;;;10109788;28;93476;-68
2023/10/08 18:30:39;;;;;;;;;;;22.20;66.10;;;;;;10109027;28;93435;-67
2023/10/08 18:35:41;;;;;;;;;;;22.20;66.00;;;;;;10112864;28;93988;-67
2023/10/08 18:40:43;;;;;;;;;;;22.20;66.00;;;;;;10101089;28;94736;-67
2023/10/08 18:45:45;;;;;;;;;;;22.20;65.90;;;;;;10106574;28;94444;-67
2023/10/08 18:50:47;;;;;;;;;;;22.10;65.80;;;;;;10108833;28;96784;-67
2023/10/08 18:55:52;;;;;;;;;;;22.10;65.80;;;;;;10107291;28;94625;-68
2023/10/08 19:00:54;;;;;;;;;;;22.10;65.70;;;;;;10118013;28;94839;-68
2023/10/08 19:05:56;;;;;;;;;;;22.10;65.70;;;;;;10103537;28;93716;-68
2023/10/08 19:10:58;;;;;;;;;;;22.10;65.50;;;;;;10115054;28;94397;-68
2023/10/08 19:16:03;;;;;;;;;;;22.00;65.50;;;;;;10112584;28;93378;-68
2023/10/08 19:21:06;;;;;;;;;;;22.00;65.60;;;;;;10112085;28;94098;-67
2023/10/08 19:26:09;;;;;;;;;;;22.00;65.60;;;;;;10110484;28;94016;-67
2023/10/08 19:31:11;;;;;;;;;;;21.90;65.40;;;;;;10095556;28;94407;-67
2023/10/08 19:36:17;;;;;;;;;;;21.90;65.60;;;;;;10118326;28;93464;-67
2023/10/08 19:41:24;;;;;;;;;;;21.90;65.50;;;;;;10117469;28;95491;-67
2023/10/08 19:46:27;;;;;;;;;;;21.90;65.60;;;;;;10117647;28;94517;-67
2023/10/08 19:51:29;;;;;;;;;;;21.90;65.60;;;;;;10121778;28;93055;-67
2023/10/08 19:56:31;;;;;;;;;;;21.90;65.60;;;;;;10121417;28;94502;-68
2023/10/08 20:01:33;;;;;;;;;;;21.80;65.60;;;;;;10120946;28;94094;-67
2023/10/08 20:06:36;;;;;;;;;;;21.80;65.60;;;;;;10108681;28;94709;-68
2023/10/08 20:11:39;;;;;;;;;;;21.80;65.60;;;;;;10119602;28;93449;-67
2023/10/08 20:16:41;;;;;;;;;;;21.70;65.50;;;;;;10122567;28;93870;-68
2023/10/08 20:21:45;;;;;;;;;;;21.70;65.50;;;;;;10093323;28;94246;-68
2023/10/08 20:26:48;;;;;;;;;;;21.70;65.40;;;;;;10113129;28;95660;-67
2023/10/08 20:31:49;;;;;;;;;;;21.70;65.50;;;;;;10108445;28;96986;-68
2023/10/08 20:36:52;;;;;;;;;;;21.60;65.40;;;;;;10118781;28;94434;-67
2023/10/08 20:41:54;;;;;;;;;;;21.60;65.50;;;;;;10097285;28;93434;-67
2023/10/08 20:46:56;;;;;;;;;;;21.60;65.40;;;;;;10100231;28;94790;-68
2023/10/08 20:51:59;;;;;;;;;;;21.60;65.40;;;;;;10083639;28;95094;-67
2023/10/08 20:57:03;;;;;;;;;;;21.60;66.40;;;;;;10101622;28;93255;-68
2023/10/08 21:02:09;;;;;;;;;;;21.50;65.40;;;;;;10101638;28;94272;-68
2023/10/08 21:07:11;;;;;;;;;;;21.50;65.30;;;;;;10109310;28;93173;-68
2023/10/08 21:12:13;;;;;;;;;;;21.50;65.40;;;;;;10122787;28;94623;-68
2023/10/08 21:17:15;;;;;;;;;;;21.50;65.30;;;;;;10120244;28;94478;-67
2023/10/08 21:22:17;;;;;;;;;;;21.50;65.40;;;;;;10085637;28;96200;-68
2023/10/08 21:27:19;;;;;;;;;;;21.50;65.30;;;;;;10111302;28;93534;-68
2023/10/08 21:32:21;;;;;;;;;;;21.50;65.30;;;;;;10109739;28;94606;-68
2023/10/08 21:37:23;;;;;;;;;;;21.50;65.20;;;;;;10107145;28;93449;-68
2023/10/08 21:42:25;;;;;;;;;;;21.50;65.10;;;;;;10119748;28;93997;-67
2023/10/08 21:47:27;;;;;;;;;;;21.50;65.10;;;;;;10126669;28;95303;-68
2023/10/08 21:52:29;;;;;;;;;;;21.50;65.00;;;;;;10113320;28;94482;-67
2023/10/08 21:57:33;;;;;;;;;;;21.50;65.00;;;;;;10103538;28;94166;-67
2023/10/08 22:02:45;;;;;;;;;;;21.50;65.00;;;;;;10116530;28;92647;-67
2023/10/08 22:07:48;;;;;;;;;;;21.50;64.90;;;;;;10113384;28;93499;-67
2023/10/08 22:12:53;;;;;;;;;;;21.50;64.90;;;;;;10120281;28;96115;-67
2023/10/08 22:17:56;;;;;;;;;;;21.50;64.80;;;;;;10116744;28;93814;-67
2023/10/08 22:22:58;;;;;;;;;;;21.50;64.70;;;;;;10105415;28;92761;-68
2023/10/08 22:28:01;;;;;;;;;;;21.50;64.70;;;;;;10110135;28;93477;-68
2023/10/08 22:33:05;;;;;;;;;;;21.50;64.70;;;;;;10090033;28;94431;-69
2023/10/08 22:38:14;;;;;;;;;;;21.50;64.70;;;;;;10095553;28;94256;-68
2023/10/08 22:43:19;;;;;;;;;;;21.50;64.70;;;;;;10124213;28;93485;-68
2023/10/08 22:48:42;;;;;;;;;;;21.50;64.70;;;;;;10117101;28;93672;-68
2023/10/08 22:53:46;;;;;;;;;;;21.40;64.60;;;;;;10112465;28;95113;-67
2023/10/08 22:58:49;;;;;;;;;;;21.40;64.60;;;;;;10101189;28;93324;-68
2023/10/08 23:03:52;;;;;;;;;;;21.40;64.60;;;;;;10112064;28;95797;-68
2023/10/08 23:08:59;;;;;;;;;;;21.40;64.70;;;;;;10117942;28;94730;-68
2023/10/08 23:14:03;;;;;;;;;;;21.40;64.60;;;;;;10112712;28;94778;-68
2023/10/08 23:19:05;;;;;;;;;;;21.40;64.70;;;;;;10107340;28;94578;-68
2023/10/08 23:24:07;;;;;;;;;;;21.40;64.80;;;;;;10096076;28;94145;-68
2023/10/08 23:29:09;;;;;;;;;;;21.40;64.80;;;;;;10099338;28;94475;-67
2023/10/08 23:34:13;;;;;;;;;;;21.30;64.70;;;;;;10114550;28;93698;-68
2023/10/08 23:39:25;;;;;;;;;;;21.30;64.80;;;;;;10118057;28;93381;-68
2023/10/08 23:44:30;;;;;;;;;;;21.30;64.80;;;;;;10076533;28;94887;-68
2023/10/08 23:49:46;;;;;;;;;;;21.30;64.80;;;;;;10101907;28;93689;-68
2023/10/08 23:54:56;;;;;;;;;;;21.30;64.90;;;;;;10100734;28;94951;-68
